sensor_id;sensor_type;location;lat;lon;timestamp;temperature;humidity
25877;DHT22;13692;47.480;19.216;2023-06-05T00:01:24;16.30;99.90
25877;DHT22;13692;47.480;19.216;2023-06-05T00:03:51;16.30;99.90
25877;DHT22;13692;47.480;19.216;2023-06-05T00:06:20;16.30;99.90
25877;DHT22;13692;47.480;19.216;2023-06-05T00:08:47;16.30;99.90
25877;DHT22;13692;47.480;19.216;2023-06-05T00:11:16;16.30;99.90
25877;DHT22;13692;47.480;19.216;2023-06-05T00:13:43;16.20;99.90
25877;DHT22;13692;47.480;19.216;2023-06-05T00:16:10;16.30;99.90
25877;DHT22;13692;47.480;19.216;2023-06-05T00:18:37;16.20;99.90
25877;DHT22;13692;47.480;19.216;2023-06-05T00:21:04;16.30;99.90
25877;DHT22;13692;47.480;19.216;2023-06-05T00:23:31;16.30;99.90
25877;DHT22;13692;47.480;19.216;2023-06-05T00:25:58;16.20;99.90
25877;DHT22;13692;47.480;19.216;2023-06-05T00:28:25;16.20;99.90
25877;DHT22;13692;47.480;19.216;2023-06-05T00:30:53;16.30;99.90
25877;DHT22;13692;47.480;19.216;2023-06-05T00:33:20;16.30;99.90
25877;DHT22;13692;47.480;19.216;2023-06-05T00:35:47;16.30;99.90
25877;DHT22;13692;47.480;19.216;2023-06-05T00:38:14;16.30;99.90
25877;DHT22;13692;47.480;19.216;2023-06-05T00:40:41;16.40;99.90
25877;DHT22;13692;47.480;19.216;2023-06-05T00:43:08;16.40;99.90
25877;DHT22;13692;47.480;19.216;2023-06-05T00:45:35;16.40;99.90
25877;DHT22;13692;47.480;19.216;2023-06-05T00:48:03;16.40;99.90
25877;DHT22;13692;47.480;19.216;2023-06-05T00:50:32;16.40;99.90
25877;DHT22;13692;47.480;19.216;2023-06-05T00:53:01;16.50;99.90
25877;DHT22;13692;47.480;19.216;2023-06-05T00:55:29;16.50;99.90
25877;DHT22;13692;47.480;19.216;2023-06-05T00:57:57;16.50;99.90
25877;DHT22;13692;47.480;19.216;2023-06-05T01:00:24;16.50;99.90
25877;DHT22;13692;47.480;19.216;2023-06-05T01:02:52;16.50;99.90
25877;DHT22;13692;47.480;19.216;2023-06-05T01:05:20;16.50;99.90
25877;DHT22;13692;47.480;19.216;2023-06-05T01:07:47;16.50;99.90
25877;DHT22;13692;47.480;19.216;2023-06-05T01:10:18;16.60;99.90
25877;DHT22;13692;47.480;19.216;2023-06-05T01:12:58;16.50;99.90
25877;DHT22;13692;47.480;19.216;2023-06-05T01:15:29;16.60;99.90
25877;DHT22;13692;47.480;19.216;2023-06-05T01:17:59;16.50;99.90
25877;DHT22;13692;47.480;19.216;2023-06-05T01:20:37;16.60;99.90
25877;DHT22;13692;47.480;19.216;2023-06-05T01:23:05;16.60;99.90
25877;DHT22;13692;47.480;19.216;2023-06-05T01:25:33;16.60;99.90
25877;DHT22;13692;47.480;19.216;2023-06-05T01:28:15;16.60;99.90
25877;DHT22;13692;47.480;19.216;2023-06-05T01:30:55;16.60;99.90
25877;DHT22;13692;47.480;19.216;2023-06-05T01:35:58;16.70;99.90
25877;DHT22;13692;47.480;19.216;2023-06-05T01:38:33;16.70;99.90
25877;DHT22;13692;47.480;19.216;2023-06-05T01:41:02;16.70;99.90
25877;DHT22;13692;47.480;19.216;2023-06-05T01:43:31;16.70;99.90
25877;DHT22;13692;47.480;19.216;2023-06-05T01:45:59;16.70;99.90
25877;DHT22;13692;47.480;19.216;2023-06-05T01:48:27;16.70;99.90
25877;DHT22;13692;47.480;19.216;2023-06-05T01:50:58;16.80;99.90
25877;DHT22;13692;47.480;19.216;2023-06-05T01:53:27;16.80;99.90
25877;DHT22;13692;47.480;19.216;2023-06-05T01:55:54;16.80;99.90
25877;DHT22;13692;47.480;19.216;2023-06-05T01:58:25;16.80;99.90
25877;DHT22;13692;47.480;19.216;2023-06-05T02:00:53;16.80;99.90
25877;DHT22;13692;47.480;19.216;2023-06-05T02:03:21;16.80;99.90
25877;DHT22;13692;47.480;19.216;2023-06-05T02:05:48;16.80;99.90
25877;DHT22;13692;47.480;19.216;2023-06-05T02:08:15;16.80;99.90
25877;DHT22;13692;47.480;19.216;2023-06-05T02:10:46;16.80;99.90
25877;DHT22;13692;47.480;19.216;2023-06-05T02:13:13;16.80;99.90
25877;DHT22;13692;47.480;19.216;2023-06-05T02:15:42;16.80;99.90
25877;DHT22;13692;47.480;19.216;2023-06-05T02:18:12;16.80;99.90
25877;DHT22;13692;47.480;19.216;2023-06-05T02:20:41;16.80;99.90
25877;DHT22;13692;47.480;19.216;2023-06-05T02:23:08;16.80;99.90
25877;DHT22;13692;47.480;19.216;2023-06-05T02:25:35;16.80;99.90
25877;DHT22;13692;47.480;19.216;2023-06-05T02:28:02;16.80;99.90
25877;DHT22;13692;47.480;19.216;2023-06-05T02:30:29;16.80;99.90
25877;DHT22;13692;47.480;19.216;2023-06-05T02:32:56;16.80;99.90
25877;DHT22;13692;47.480;19.216;2023-06-05T02:35:24;16.80;99.90
25877;DHT22;13692;47.480;19.216;2023-06-05T02:37:51;16.90;99.90
25877;DHT22;13692;47.480;19.216;2023-06-05T02:40:18;16.90;99.90
25877;DHT22;13692;47.480;19.216;2023-06-05T02:42:45;16.90;99.90
25877;DHT22;13692;47.480;19.216;2023-06-05T02:45:12;16.90;99.90
25877;DHT22;13692;47.480;19.216;2023-06-05T02:47:39;16.90;99.90
25877;DHT22;13692;47.480;19.216;2023-06-05T02:50:07;16.90;99.90
25877;DHT22;13692;47.480;19.216;2023-06-05T02:52:34;16.80;99.90
25877;DHT22;13692;47.480;19.216;2023-06-05T02:55:02;16.80;99.90
25877;DHT22;13692;47.480;19.216;2023-06-05T02:57:30;16.90;99.90
25877;DHT22;13692;47.480;19.216;2023-06-05T02:59:57;16.90;99.90
25877;DHT22;13692;47.480;19.216;2023-06-05T03:02:24;16.90;99.90
25877;DHT22;13692;47.480;19.216;2023-06-05T03:04:53;16.90;99.90
25877;DHT22;13692;47.480;19.216;2023-06-05T03:07:22;16.90;99.90
25877;DHT22;13692;47.480;19.216;2023-06-05T03:09:49;16.90;99.90
25877;DHT22;13692;47.480;19.216;2023-06-05T03:12:16;16.80;99.90
25877;DHT22;13692;47.480;19.216;2023-06-05T03:14:43;16.80;99.90
25877;DHT22;13692;47.480;19.216;2023-06-05T03:17:10;16.80;99.90
25877;DHT22;13692;47.480;19.216;2023-06-05T03:19:37;16.90;99.90
25877;DHT22;13692;47.480;19.216;2023-06-05T03:22:04;16.90;99.90
25877;DHT22;13692;47.480;19.216;2023-06-05T03:24:31;16.90;99.90
25877;DHT22;13692;47.480;19.216;2023-06-05T03:26:58;17.00;99.90
25877;DHT22;13692;47.480;19.216;2023-06-05T03:29:27;17.00;99.90
25877;DHT22;13692;47.480;19.216;2023-06-05T03:31:54;17.00;99.90
25877;DHT22;13692;47.480;19.216;2023-06-05T03:34:21;17.00;99.90
25877;DHT22;13692;47.480;19.216;2023-06-05T03:36:52;17.00;99.90
25877;DHT22;13692;47.480;19.216;2023-06-05T03:39:19;17.00;99.90
25877;DHT22;13692;47.480;19.216;2023-06-05T03:41:47;17.00;99.90
25877;DHT22;13692;47.480;19.216;2023-06-05T03:44:14;17.00;99.90
25877;DHT22;13692;47.480;19.216;2023-06-05T03:46:42;17.00;99.90
25877;DHT22;13692;47.480;19.216;2023-06-05T03:49:09;17.10;99.90
25877;DHT22;13692;47.480;19.216;2023-06-05T03:51:36;17.10;99.90
25877;DHT22;13692;47.480;19.216;2023-06-05T03:54:03;17.10;99.90
25877;DHT22;13692;47.480;19.216;2023-06-05T03:56:31;17.20;99.90
25877;DHT22;13692;47.480;19.216;2023-06-05T03:59:01;17.30;99.90
25877;DHT22;13692;47.480;19.216;2023-06-05T04:01:45;17.40;99.90
25877;DHT22;13692;47.480;19.216;2023-06-05T04:04:13;17.60;99.90
25877;DHT22;13692;47.480;19.216;2023-06-05T04:06:40;17.80;99.90
25877;DHT22;13692;47.480;19.216;2023-06-05T04:09:07;18.00;99.90
25877;DHT22;13692;47.480;19.216;2023-06-05T04:11:41;18.20;99.90
25877;DHT22;13692;47.480;19.216;2023-06-05T04:14:10;18.50;99.90
25877;DHT22;13692;47.480;19.216;2023-06-05T04:16:38;18.90;99.90
25877;DHT22;13692;47.480;19.216;2023-06-05T04:19:06;19.40;99.90
25877;DHT22;13692;47.480;19.216;2023-06-05T04:21:33;19.70;99.90
25877;DHT22;13692;47.480;19.216;2023-06-05T04:24:04;20.10;99.90
25877;DHT22;13692;47.480;19.216;2023-06-05T04:26:34;20.50;99.90
25877;DHT22;13692;47.480;19.216;2023-06-05T04:29:03;20.90;99.90
25877;DHT22;13692;47.480;19.216;2023-06-05T04:31:31;21.20;99.90
25877;DHT22;13692;47.480;19.216;2023-06-05T04:33:58;21.50;99.90
25877;DHT22;13692;47.480;19.216;2023-06-05T04:36:28;21.50;99.90
25877;DHT22;13692;47.480;19.216;2023-06-05T04:38:55;21.60;99.90
25877;DHT22;13692;47.480;19.216;2023-06-05T04:41:22;21.60;99.90
25877;DHT22;13692;47.480;19.216;2023-06-05T04:43:49;21.70;99.90
25877;DHT22;13692;47.480;19.216;2023-06-05T04:46:17;22.10;99.90
25877;DHT22;13692;47.480;19.216;2023-06-05T04:48:44;22.20;99.90
25877;DHT22;13692;47.480;19.216;2023-06-05T04:51:12;22.10;99.90
25877;DHT22;13692;47.480;19.216;2023-06-05T04:53:39;22.10;99.90
25877;DHT22;13692;47.480;19.216;2023-06-05T04:56:08;22.00;99.90
25877;DHT22;13692;47.480;19.216;2023-06-05T04:58:35;21.90;99.90
25877;DHT22;13692;47.480;19.216;2023-06-05T05:01:03;21.70;99.90
25877;DHT22;13692;47.480;19.216;2023-06-05T05:03:32;21.60;99.90
25877;DHT22;13692;47.480;19.216;2023-06-05T05:05:59;21.50;99.90
25877;DHT22;13692;47.480;19.216;2023-06-05T05:08:27;21.40;99.90
25877;DHT22;13692;47.480;19.216;2023-06-05T05:10:54;21.40;99.90
25877;DHT22;13692;47.480;19.216;2023-06-05T05:13:22;21.40;99.90
25877;DHT22;13692;47.480;19.216;2023-06-05T05:15:49;21.60;99.90
25877;DHT22;13692;47.480;19.216;2023-06-05T05:18:20;21.70;99.90
25877;DHT22;13692;47.480;19.216;2023-06-05T05:20:47;22.00;99.90
25877;DHT22;13692;47.480;19.216;2023-06-05T05:23:14;22.50;99.90
25877;DHT22;13692;47.480;19.216;2023-06-05T05:25:44;23.30;99.90
25877;DHT22;13692;47.480;19.216;2023-06-05T05:28:11;23.70;99.90
25877;DHT22;13692;47.480;19.216;2023-06-05T05:30:38;24.00;99.90
25877;DHT22;13692;47.480;19.216;2023-06-05T05:33:05;24.20;99.90
25877;DHT22;13692;47.480;19.216;2023-06-05T05:35:33;24.30;99.90
25877;DHT22;13692;47.480;19.216;2023-06-05T05:38:00;24.50;99.90
25877;DHT22;13692;47.480;19.216;2023-06-05T05:40:27;24.90;99.90
25877;DHT22;13692;47.480;19.216;2023-06-05T05:42:54;25.00;99.90
25877;DHT22;13692;47.480;19.216;2023-06-05T05:45:21;24.40;98.10
25877;DHT22;13692;47.480;19.216;2023-06-05T05:47:48;23.90;98.60
25877;DHT22;13692;47.480;19.216;2023-06-05T05:50:15;23.50;97.60
25877;DHT22;13692;47.480;19.216;2023-06-05T05:52:42;22.90;97.80
25877;DHT22;13692;47.480;19.216;2023-06-05T05:55:10;22.60;98.70
25877;DHT22;13692;47.480;19.216;2023-06-05T05:57:38;22.60;98.80
25877;DHT22;13692;47.480;19.216;2023-06-05T06:00:06;22.70;99.60
25877;DHT22;13692;47.480;19.216;2023-06-05T06:02:37;22.70;99.60
25877;DHT22;13692;47.480;19.216;2023-06-05T06:05:05;22.60;99.00
25877;DHT22;13692;47.480;19.216;2023-06-05T06:07:32;22.40;99.70
25877;DHT22;13692;47.480;19.216;2023-06-05T06:09:59;22.40;99.50
25877;DHT22;13692;47.480;19.216;2023-06-05T06:12:26;22.30;99.90
25877;DHT22;13692;47.480;19.216;2023-06-05T06:14:54;22.10;99.90
25877;DHT22;13692;47.480;19.216;2023-06-05T06:17:21;22.10;99.90
25877;DHT22;13692;47.480;19.216;2023-06-05T06:19:49;22.10;99.90
25877;DHT22;13692;47.480;19.216;2023-06-05T06:22:16;22.10;99.90
25877;DHT22;13692;47.480;19.216;2023-06-05T06:24:43;22.30;99.90
25877;DHT22;13692;47.480;19.216;2023-06-05T06:27:12;22.40;99.70
25877;DHT22;13692;47.480;19.216;2023-06-05T06:29:50;22.50;99.90
25877;DHT22;13692;47.480;19.216;2023-06-05T06:32:20;22.60;99.90
25877;DHT22;13692;47.480;19.216;2023-06-05T06:34:49;22.60;99.90
25877;DHT22;13692;47.480;19.216;2023-06-05T06:37:15;23.20;99.90
25877;DHT22;13692;47.480;19.216;2023-06-05T06:39:43;24.00;99.00
25877;DHT22;13692;47.480;19.216;2023-06-05T06:42:11;24.70;98.60
25877;DHT22;13692;47.480;19.216;2023-06-05T06:44:39;24.70;97.30
25877;DHT22;13692;47.480;19.216;2023-06-05T06:47:06;24.50;97.50
25877;DHT22;13692;47.480;19.216;2023-06-05T06:49:35;24.20;98.50
25877;DHT22;13692;47.480;19.216;2023-06-05T06:52:02;24.40;98.30
25877;DHT22;13692;47.480;19.216;2023-06-05T06:54:29;24.60;97.80
25877;DHT22;13692;47.480;19.216;2023-06-05T06:56:57;24.10;97.50
25877;DHT22;13692;47.480;19.216;2023-06-05T06:59:24;23.80;98.80
25877;DHT22;13692;47.480;19.216;2023-06-05T07:02:11;23.70;98.00
25877;DHT22;13692;47.480;19.216;2023-06-05T07:04:39;23.60;99.00
25877;DHT22;13692;47.480;19.216;2023-06-05T07:07:12;23.70;98.20
25877;DHT22;13692;47.480;19.216;2023-06-05T07:09:40;23.50;98.30
25877;DHT22;13692;47.480;19.216;2023-06-05T07:12:11;23.30;97.80
25877;DHT22;13692;47.480;19.216;2023-06-05T07:14:39;23.20;98.80
25877;DHT22;13692;47.480;19.216;2023-06-05T07:17:07;23.10;99.50
25877;DHT22;13692;47.480;19.216;2023-06-05T07:19:35;23.20;99.90
25877;DHT22;13692;47.480;19.216;2023-06-05T07:22:03;23.20;99.90
25877;DHT22;13692;47.480;19.216;2023-06-05T07:24:32;23.40;99.90
25877;DHT22;13692;47.480;19.216;2023-06-05T07:27:01;23.30;99.60
25877;DHT22;13692;47.480;19.216;2023-06-05T07:29:29;23.20;99.20
25877;DHT22;13692;47.480;19.216;2023-06-05T07:31:57;23.10;99.90
25877;DHT22;13692;47.480;19.216;2023-06-05T07:34:25;23.00;99.90
25877;DHT22;13692;47.480;19.216;2023-06-05T07:36:53;22.80;99.90
25877;DHT22;13692;47.480;19.216;2023-06-05T07:39:21;22.80;99.90
25877;DHT22;13692;47.480;19.216;2023-06-05T07:41:49;22.90;99.90
25877;DHT22;13692;47.480;19.216;2023-06-05T07:44:19;22.80;99.90
25877;DHT22;13692;47.480;19.216;2023-06-05T07:46:49;22.60;99.90
25877;DHT22;13692;47.480;19.216;2023-06-05T07:49:17;22.70;99.90
25877;DHT22;13692;47.480;19.216;2023-06-05T07:51:45;22.70;99.90
25877;DHT22;13692;47.480;19.216;2023-06-05T07:54:14;22.70;99.90
25877;DHT22;13692;47.480;19.216;2023-06-05T07:56:46;22.60;99.90
25877;DHT22;13692;47.480;19.216;2023-06-05T07:59:17;22.40;99.90
25877;DHT22;13692;47.480;19.216;2023-06-05T08:01:49;22.40;99.90
25877;DHT22;13692;47.480;19.216;2023-06-05T08:04:16;22.40;99.90
25877;DHT22;13692;47.480;19.216;2023-06-05T08:06:44;22.40;99.90
25877;DHT22;13692;47.480;19.216;2023-06-05T08:09:12;22.50;99.90
25877;DHT22;13692;47.480;19.216;2023-06-05T08:11:39;22.70;99.90
25877;DHT22;13692;47.480;19.216;2023-06-05T08:14:07;22.60;99.90
25877;DHT22;13692;47.480;19.216;2023-06-05T08:16:35;22.60;99.90
25877;DHT22;13692;47.480;19.216;2023-06-05T08:19:02;22.60;99.90
25877;DHT22;13692;47.480;19.216;2023-06-05T08:21:30;22.60;99.90
25877;DHT22;13692;47.480;19.216;2023-06-05T08:23:57;22.60;99.90
25877;DHT22;13692;47.480;19.216;2023-06-05T08:26:24;22.60;99.90
25877;DHT22;13692;47.480;19.216;2023-06-05T08:28:52;22.60;99.90
25877;DHT22;13692;47.480;19.216;2023-06-05T08:31:20;22.60;99.90
25877;DHT22;13692;47.480;19.216;2023-06-05T08:33:47;22.50;99.90
25877;DHT22;13692;47.480;19.216;2023-06-05T08:36:14;22.50;99.90
25877;DHT22;13692;47.480;19.216;2023-06-05T08:38:43;22.40;99.90
25877;DHT22;13692;47.480;19.216;2023-06-05T08:41:13;22.40;99.90
25877;DHT22;13692;47.480;19.216;2023-06-05T08:43:43;22.50;99.90
25877;DHT22;13692;47.480;19.216;2023-06-05T08:46:14;22.60;99.90
25877;DHT22;13692;47.480;19.216;2023-06-05T08:48:43;22.60;99.90
25877;DHT22;13692;47.480;19.216;2023-06-05T08:51:19;22.50;99.90
25877;DHT22;13692;47.480;19.216;2023-06-05T08:53:51;22.40;99.90
25877;DHT22;13692;47.480;19.216;2023-06-05T08:56:21;22.50;99.90
25877;DHT22;13692;47.480;19.216;2023-06-05T08:58:48;22.60;99.90
25877;DHT22;13692;47.480;19.216;2023-06-05T09:01:16;22.60;99.90
25877;DHT22;13692;47.480;19.216;2023-06-05T09:03:43;22.60;99.90
25877;DHT22;13692;47.480;19.216;2023-06-05T09:06:11;22.60;99.90
25877;DHT22;13692;47.480;19.216;2023-06-05T09:08:38;22.70;99.90
25877;DHT22;13692;47.480;19.216;2023-06-05T09:11:30;22.80;99.90
25877;DHT22;13692;47.480;19.216;2023-06-05T09:13:59;22.80;99.90
25877;DHT22;13692;47.480;19.216;2023-06-05T09:19:01;23.20;99.90
25877;DHT22;13692;47.480;19.216;2023-06-05T09:21:28;23.30;99.90
25877;DHT22;13692;47.480;19.216;2023-06-05T09:24:19;23.30;99.90
25877;DHT22;13692;47.480;19.216;2023-06-05T09:31:53;23.50;99.90
25877;DHT22;13692;47.480;19.216;2023-06-05T09:36:55;23.80;99.90
25877;DHT22;13692;47.480;19.216;2023-06-05T09:39:24;23.80;99.90
25877;DHT22;13692;47.480;19.216;2023-06-05T09:41:54;23.80;99.90
25877;DHT22;13692;47.480;19.216;2023-06-05T09:44:22;23.70;99.90
25877;DHT22;13692;47.480;19.216;2023-06-05T09:49:31;24.00;99.90
25877;DHT22;13692;47.480;19.216;2023-06-05T09:52:00;24.10;99.80
25877;DHT22;13692;47.480;19.216;2023-06-05T09:54:29;24.20;99.40
25877;DHT22;13692;47.480;19.216;2023-06-05T09:56:58;24.30;98.80
25877;DHT22;13692;47.480;19.216;2023-06-05T09:59:30;24.40;96.90
25877;DHT22;13692;47.480;19.216;2023-06-05T10:02:05;24.40;93.80
25877;DHT22;13692;47.480;19.216;2023-06-05T10:04:38;24.50;93.80
25877;DHT22;13692;47.480;19.216;2023-06-05T10:07:08;24.60;94.40
25877;DHT22;13692;47.480;19.216;2023-06-05T10:09:36;24.70;92.50
25877;DHT22;13692;47.480;19.216;2023-06-05T10:12:04;24.60;91.70
25877;DHT22;13692;47.480;19.216;2023-06-05T10:14:31;24.70;90.70
25877;DHT22;13692;47.480;19.216;2023-06-05T10:16:59;24.70;90.30
25877;DHT22;13692;47.480;19.216;2023-06-05T10:19:28;24.70;91.90
25877;DHT22;13692;47.480;19.216;2023-06-05T10:21:55;24.90;91.50
25877;DHT22;13692;47.480;19.216;2023-06-05T10:24:34;25.00;90.50
25877;DHT22;13692;47.480;19.216;2023-06-05T10:30:06;25.10;90.10
25877;DHT22;13692;47.480;19.216;2023-06-05T10:38:28;25.10;90.80
25877;DHT22;13692;47.480;19.216;2023-06-05T10:41:01;25.00;91.00
25877;DHT22;13692;47.480;19.216;2023-06-05T10:43:34;25.00;91.10
25877;DHT22;13692;47.480;19.216;2023-06-05T10:51:40;25.90;92.30
25877;DHT22;13692;47.480;19.216;2023-06-05T10:59:31;25.90;90.50
25877;DHT22;13692;47.480;19.216;2023-06-05T11:15:04;25.20;92.00
25877;DHT22;13692;47.480;19.216;2023-06-05T11:17:31;25.10;92.80
25877;DHT22;13692;47.480;19.216;2023-06-05T11:20:01;25.20;92.00
25877;DHT22;13692;47.480;19.216;2023-06-05T11:22:30;25.30;91.90
25877;DHT22;13692;47.480;19.216;2023-06-05T11:28:00;25.50;91.50
25877;DHT22;13692;47.480;19.216;2023-06-05T11:30:45;25.60;92.10
25877;DHT22;13692;47.480;19.216;2023-06-05T11:33:19;25.80;90.00
25877;DHT22;13692;47.480;19.216;2023-06-05T11:35:50;25.80;90.70
25877;DHT22;13692;47.480;19.216;2023-06-05T11:38:21;26.00;90.20
25877;DHT22;13692;47.480;19.216;2023-06-05T11:40:51;26.00;89.70
25877;DHT22;13692;47.480;19.216;2023-06-05T11:43:19;26.00;89.80
25877;DHT22;13692;47.480;19.216;2023-06-05T11:45:55;26.10;90.30
25877;DHT22;13692;47.480;19.216;2023-06-05T11:48:24;25.90;90.80
25877;DHT22;13692;47.480;19.216;2023-06-05T11:50:58;26.00;90.20
25877;DHT22;13692;47.480;19.216;2023-06-05T11:53:26;25.80;90.70
25877;DHT22;13692;47.480;19.216;2023-06-05T11:55:55;25.80;90.40
25877;DHT22;13692;47.480;19.216;2023-06-05T11:58:37;25.60;89.70
25877;DHT22;13692;47.480;19.216;2023-06-05T12:01:05;25.70;90.00
25877;DHT22;13692;47.480;19.216;2023-06-05T12:03:33;25.80;90.20
25877;DHT22;13692;47.480;19.216;2023-06-05T12:06:01;26.00;89.50
25877;DHT22;13692;47.480;19.216;2023-06-05T12:08:30;26.10;89.20
25877;DHT22;13692;47.480;19.216;2023-06-05T12:11:01;26.20;89.70
25877;DHT22;13692;47.480;19.216;2023-06-05T12:13:51;26.20;88.30
25877;DHT22;13692;47.480;19.216;2023-06-05T12:16:19;26.20;87.20
25877;DHT22;13692;47.480;19.216;2023-06-05T12:18:46;26.20;86.60
25877;DHT22;13692;47.480;19.216;2023-06-05T12:21:28;26.10;85.90
25877;DHT22;13692;47.480;19.216;2023-06-05T12:24:03;25.90;84.60
25877;DHT22;13692;47.480;19.216;2023-06-05T12:27:02;26.00;86.00
25877;DHT22;13692;47.480;19.216;2023-06-05T12:29:36;26.10;86.10
25877;DHT22;13692;47.480;19.216;2023-06-05T12:32:23;26.00;83.80
25877;DHT22;13692;47.480;19.216;2023-06-05T12:34:51;25.90;84.00
25877;DHT22;13692;47.480;19.216;2023-06-05T12:39:49;25.90;84.20
25877;DHT22;13692;47.480;19.216;2023-06-05T12:42:16;25.90;84.40
25877;DHT22;13692;47.480;19.216;2023-06-05T12:44:43;26.00;83.90
25877;DHT22;13692;47.480;19.216;2023-06-05T12:47:10;25.90;82.10
25877;DHT22;13692;47.480;19.216;2023-06-05T12:49:37;25.80;82.50
25877;DHT22;13692;47.480;19.216;2023-06-05T12:52:08;25.80;82.60
25877;DHT22;13692;47.480;19.216;2023-06-05T12:54:36;25.90;83.00
25877;DHT22;13692;47.480;19.216;2023-06-05T12:57:04;26.00;83.90
25877;DHT22;13692;47.480;19.216;2023-06-05T12:59:34;26.10;82.40
25877;DHT22;13692;47.480;19.216;2023-06-05T13:02:02;25.90;82.00
25877;DHT22;13692;47.480;19.216;2023-06-05T13:04:30;25.90;80.20
25877;DHT22;13692;47.480;19.216;2023-06-05T13:07:01;25.80;82.20
25877;DHT22;13692;47.480;19.216;2023-06-05T13:09:28;25.80;82.30
25877;DHT22;13692;47.480;19.216;2023-06-05T13:11:55;25.90;82.70
25877;DHT22;13692;47.480;19.216;2023-06-05T13:14:24;25.90;81.50
25877;DHT22;13692;47.480;19.216;2023-06-05T13:16:51;25.90;80.00
25877;DHT22;13692;47.480;19.216;2023-06-05T13:19:18;25.90;81.30
25877;DHT22;13692;47.480;19.216;2023-06-05T13:21:45;25.80;80.00
25877;DHT22;13692;47.480;19.216;2023-06-05T13:24:12;25.70;81.60
25877;DHT22;13692;47.480;19.216;2023-06-05T13:26:39;25.80;82.40
25877;DHT22;13692;47.480;19.216;2023-06-05T13:29:09;25.80;80.60
25877;DHT22;13692;47.480;19.216;2023-06-05T13:31:37;25.80;79.40
25877;DHT22;13692;47.480;19.216;2023-06-05T13:34:04;25.80;80.30
25877;DHT22;13692;47.480;19.216;2023-06-05T13:36:31;25.70;81.50
25877;DHT22;13692;47.480;19.216;2023-06-05T13:38:58;25.80;81.00
25877;DHT22;13692;47.480;19.216;2023-06-05T13:41:25;25.80;82.00
25877;DHT22;13692;47.480;19.216;2023-06-05T13:43:53;25.90;81.30
25877;DHT22;13692;47.480;19.216;2023-06-05T13:46:20;25.80;80.50
25877;DHT22;13692;47.480;19.216;2023-06-05T13:48:47;25.80;81.00
25877;DHT22;13692;47.480;19.216;2023-06-05T13:51:13;25.70;81.20
25877;DHT22;13692;47.480;19.216;2023-06-05T13:53:40;25.70;80.40
25877;DHT22;13692;47.480;19.216;2023-06-05T13:56:07;25.70;81.50
25877;DHT22;13692;47.480;19.216;2023-06-05T13:58:35;25.70;79.40
25877;DHT22;13692;47.480;19.216;2023-06-05T14:01:02;25.60;78.50
25877;DHT22;13692;47.480;19.216;2023-06-05T14:03:29;25.60;78.90
25877;DHT22;13692;47.480;19.216;2023-06-05T14:05:56;25.60;80.10
25877;DHT22;13692;47.480;19.216;2023-06-05T14:08:23;25.60;79.80
25877;DHT22;13692;47.480;19.216;2023-06-05T14:10:50;25.60;79.70
25877;DHT22;13692;47.480;19.216;2023-06-05T14:13:17;25.70;79.80
25877;DHT22;13692;47.480;19.216;2023-06-05T14:15:44;25.60;79.60
25877;DHT22;13692;47.480;19.216;2023-06-05T14:18:11;25.50;78.60
25877;DHT22;13692;47.480;19.216;2023-06-05T14:20:40;25.60;79.40
25877;DHT22;13692;47.480;19.216;2023-06-05T14:23:07;25.60;79.60
25877;DHT22;13692;47.480;19.216;2023-06-05T14:25:34;25.60;79.30
25877;DHT22;13692;47.480;19.216;2023-06-05T14:28:01;25.70;78.90
25877;DHT22;13692;47.480;19.216;2023-06-05T14:30:28;25.60;79.60
25877;DHT22;13692;47.480;19.216;2023-06-05T14:32:55;25.60;79.40
25877;DHT22;13692;47.480;19.216;2023-06-05T14:35:22;25.50;78.80
25877;DHT22;13692;47.480;19.216;2023-06-05T14:37:49;25.50;78.60
25877;DHT22;13692;47.480;19.216;2023-06-05T14:40:16;25.40;78.30
25877;DHT22;13692;47.480;19.216;2023-06-05T14:42:44;25.40;79.10
25877;DHT22;13692;47.480;19.216;2023-06-05T14:45:11;25.40;78.70
25877;DHT22;13692;47.480;19.216;2023-06-05T14:47:38;25.50;79.40
25877;DHT22;13692;47.480;19.216;2023-06-05T14:50:06;25.50;78.40
25877;DHT22;13692;47.480;19.216;2023-06-05T14:52:34;25.40;79.10
25877;DHT22;13692;47.480;19.216;2023-06-05T14:55:02;25.50;80.30
25877;DHT22;13692;47.480;19.216;2023-06-05T14:57:32;25.50;78.70
25877;DHT22;13692;47.480;19.216;2023-06-05T15:00:01;25.50;78.50
25877;DHT22;13692;47.480;19.216;2023-06-05T15:02:31;25.40;78.90
25877;DHT22;13692;47.480;19.216;2023-06-05T15:04:58;25.40;78.60
25877;DHT22;13692;47.480;19.216;2023-06-05T15:07:38;25.40;78.50
25877;DHT22;13692;47.480;19.216;2023-06-05T15:10:05;25.40;79.40
25877;DHT22;13692;47.480;19.216;2023-06-05T15:12:35;25.40;79.70
25877;DHT22;13692;47.480;19.216;2023-06-05T15:15:02;25.50;78.80
25877;DHT22;13692;47.480;19.216;2023-06-05T15:17:46;25.40;78.70
25877;DHT22;13692;47.480;19.216;2023-06-05T15:20:14;25.30;79.40
25877;DHT22;13692;47.480;19.216;2023-06-05T15:22:41;25.40;79.10
25877;DHT22;13692;47.480;19.216;2023-06-05T15:25:08;25.40;79.40
25877;DHT22;13692;47.480;19.216;2023-06-05T15:27:35;25.30;79.70
25877;DHT22;13692;47.480;19.216;2023-06-05T15:30:02;25.30;80.00
25877;DHT22;13692;47.480;19.216;2023-06-05T15:32:29;25.20;80.40
25877;DHT22;13692;47.480;19.216;2023-06-05T15:34:57;25.20;80.50
25877;DHT22;13692;47.480;19.216;2023-06-05T15:37:24;25.20;79.70
25877;DHT22;13692;47.480;19.216;2023-06-05T15:39:52;25.10;80.40
25877;DHT22;13692;47.480;19.216;2023-06-05T15:42:28;25.10;81.30
25877;DHT22;13692;47.480;19.216;2023-06-05T15:45:06;25.10;81.60
25877;DHT22;13692;47.480;19.216;2023-06-05T15:47:34;25.10;82.00
25877;DHT22;13692;47.480;19.216;2023-06-05T15:50:03;25.10;82.00
25877;DHT22;13692;47.480;19.216;2023-06-05T15:52:34;25.00;81.80
25877;DHT22;13692;47.480;19.216;2023-06-05T15:55:02;25.00;81.80
25877;DHT22;13692;47.480;19.216;2023-06-05T15:57:29;25.00;82.50
25877;DHT22;13692;47.480;19.216;2023-06-05T15:59:56;24.90;81.90
25877;DHT22;13692;47.480;19.216;2023-06-05T16:02:23;24.80;82.00
25877;DHT22;13692;47.480;19.216;2023-06-05T16:04:52;24.80;82.70
25877;DHT22;13692;47.480;19.216;2023-06-05T16:07:18;24.70;81.80
25877;DHT22;13692;47.480;19.216;2023-06-05T16:09:45;24.70;82.60
25877;DHT22;13692;47.480;19.216;2023-06-05T16:12:13;24.70;82.70
25877;DHT22;13692;47.480;19.216;2023-06-05T16:14:39;24.70;81.60
25877;DHT22;13692;47.480;19.216;2023-06-05T16:17:07;24.60;81.90
25877;DHT22;13692;47.480;19.216;2023-06-05T16:19:34;24.60;82.30